sensor_id;sensor_type;location;lat;lon;timestamp;temperature;humidity
15930;DHT22;8064;51.142;4.780;2023-03-26T00:00:57;9.60;99.90
15930;DHT22;8064;51.142;4.780;2023-03-26T00:03:23;9.60;99.90
15930;DHT22;8064;51.142;4.780;2023-03-26T00:05:49;9.60;99.90
15930;DHT22;8064;51.142;4.780;2023-03-26T00:08:25;9.60;99.90
15930;DHT22;8064;51.142;4.780;2023-03-26T00:10:51;9.60;99.90
15930;DHT22;8064;51.142;4.780;2023-03-26T00:13:17;9.50;99.90
15930;DHT22;8064;51.142;4.780;2023-03-26T00:15:42;9.60;99.90
15930;DHT22;8064;51.142;4.780;2023-03-26T00:18:08;9.60;99.90
15930;DHT22;8064;51.142;4.780;2023-03-26T00:20:34;9.60;99.90
15930;DHT22;8064;51.142;4.780;2023-03-26T00:23:00;9.60;99.90
15930;DHT22;8064;51.142;4.780;2023-03-26T00:25:27;9.60;99.90
15930;DHT22;8064;51.142;4.780;2023-03-26T00:27:53;9.60;99.90
15930;DHT22;8064;51.142;4.780;2023-03-26T00:30:19;9.60;99.90
15930;DHT22;8064;51.142;4.780;2023-03-26T00:32:45;9.70;99.90
15930;DHT22;8064;51.142;4.780;2023-03-26T00:35:11;9.70;99.90
15930;DHT22;8064;51.142;4.780;2023-03-26T00:37:37;9.70;99.90
15930;DHT22;8064;51.142;4.780;2023-03-26T00:40:08;9.80;99.90
15930;DHT22;8064;51.142;4.780;2023-03-26T00:42:36;9.80;99.90
15930;DHT22;8064;51.142;4.780;2023-03-26T00:45:05;9.90;99.90
15930;DHT22;8064;51.142;4.780;2023-03-26T00:47:32;9.90;99.90
15930;DHT22;8064;51.142;4.780;2023-03-26T00:49:58;9.90;99.90
15930;DHT22;8064;51.142;4.780;2023-03-26T00:52:24;10.00;99.90
15930;DHT22;8064;51.142;4.780;2023-03-26T00:54:53;10.00;99.90
15930;DHT22;8064;51.142;4.780;2023-03-26T00:57:19;10.00;99.90
15930;DHT22;8064;51.142;4.780;2023-03-26T00:59:47;10.10;99.90
15930;DHT22;8064;51.142;4.780;2023-03-26T01:02:16;10.00;99.90
15930;DHT22;8064;51.142;4.780;2023-03-26T01:04:46;10.10;99.90
15930;DHT22;8064;51.142;4.780;2023-03-26T01:07:15;10.10;99.90
15930;DHT22;8064;51.142;4.780;2023-03-26T01:09:48;10.10;99.90
15930;DHT22;8064;51.142;4.780;2023-03-26T01:12:21;10.10;99.90
15930;DHT22;8064;51.142;4.780;2023-03-26T01:14:48;10.10;99.90
15930;DHT22;8064;51.142;4.780;2023-03-26T01:17:15;10.10;99.90
15930;DHT22;8064;51.142;4.780;2023-03-26T01:22:12;10.10;99.90
15930;DHT22;8064;51.142;4.780;2023-03-26T01:24:39;10.10;99.90
15930;DHT22;8064;51.142;4.780;2023-03-26T01:27:35;10.10;99.90
15930;DHT22;8064;51.142;4.780;2023-03-26T01:30:12;10.10;99.90
15930;DHT22;8064;51.142;4.780;2023-03-26T01:35:46;10.00;99.90
15930;DHT22;8064;51.142;4.780;2023-03-26T01:38:32;10.00;99.90
15930;DHT22;8064;51.142;4.780;2023-03-26T01:44:06;9.90;99.90
15930;DHT22;8064;51.142;4.780;2023-03-26T01:46:35;9.90;99.90
15930;DHT22;8064;51.142;4.780;2023-03-26T01:49:03;9.80;99.90
15930;DHT22;8064;51.142;4.780;2023-03-26T01:51:33;9.80;99.90
15930;DHT22;8064;51.142;4.780;2023-03-26T01:54:01;9.80;99.90
15930;DHT22;8064;51.142;4.780;2023-03-26T01:56:35;9.80;99.90
15930;DHT22;8064;51.142;4.780;2023-03-26T02:02:16;9.80;99.90
15930;DHT22;8064;51.142;4.780;2023-03-26T02:04:53;9.80;99.90
15930;DHT22;8064;51.142;4.780;2023-03-26T02:12:52;9.90;99.90
15930;DHT22;8064;51.142;4.780;2023-03-26T02:15:18;9.90;99.90
15930;DHT22;8064;51.142;4.780;2023-03-26T02:17:45;10.00;99.90
15930;DHT22;8064;51.142;4.780;2023-03-26T02:20:12;10.00;99.90
15930;DHT22;8064;51.142;4.780;2023-03-26T02:22:40;10.00;99.90
15930;DHT22;8064;51.142;4.780;2023-03-26T02:25:11;10.00;99.90
15930;DHT22;8064;51.142;4.780;2023-03-26T02:27:38;10.00;99.90
15930;DHT22;8064;51.142;4.780;2023-03-26T02:30:08;10.00;99.90
15930;DHT22;8064;51.142;4.780;2023-03-26T02:32:34;10.00;99.90
15930;DHT22;8064;51.142;4.780;2023-03-26T02:35:01;10.00;99.90
15930;DHT22;8064;51.142;4.780;2023-03-26T02:37:27;10.00;99.90
15930;DHT22;8064;51.142;4.780;2023-03-26T02:39:54;10.00;99.90
15930;DHT22;8064;51.142;4.780;2023-03-26T02:42:20;10.00;99.90
15930;DHT22;8064;51.142;4.780;2023-03-26T02:44:47;10.00;99.90
15930;DHT22;8064;51.142;4.780;2023-03-26T02:47:12;10.00;99.90
15930;DHT22;8064;51.142;4.780;2023-03-26T02:49:38;10.00;99.90
15930;DHT22;8064;51.142;4.780;2023-03-26T02:52:04;10.00;99.90
15930;DHT22;8064;51.142;4.780;2023-03-26T02:54:31;10.00;99.90
15930;DHT22;8064;51.142;4.780;2023-03-26T02:56:58;10.00;99.90
15930;DHT22;8064;51.142;4.780;2023-03-26T02:59:24;10.00;99.90
15930;DHT22;8064;51.142;4.780;2023-03-26T03:01:50;10.00;99.90
15930;DHT22;8064;51.142;4.780;2023-03-26T03:04:16;10.00;99.90
15930;DHT22;8064;51.142;4.780;2023-03-26T03:06:43;10.00;99.90
15930;DHT22;8064;51.142;4.780;2023-03-26T03:09:10;10.00;99.90
15930;DHT22;8064;51.142;4.780;2023-03-26T03:11:37;10.00;99.90
15930;DHT22;8064;51.142;4.780;2023-03-26T03:14:04;9.90;99.90
15930;DHT22;8064;51.142;4.780;2023-03-26T03:16:30;9.90;99.90
15930;DHT22;8064;51.142;4.780;2023-03-26T03:18:56;9.90;99.90
15930;DHT22;8064;51.142;4.780;2023-03-26T03:21:23;9.80;99.90
15930;DHT22;8064;51.142;4.780;2023-03-26T03:23:49;9.80;99.90
15930;DHT22;8064;51.142;4.780;2023-03-26T03:26:18;9.80;99.90
15930;DHT22;8064;51.142;4.780;2023-03-26T03:28:47;9.80;99.90
15930;DHT22;8064;51.142;4.780;2023-03-26T03:31:14;9.80;99.90
15930;DHT22;8064;51.142;4.780;2023-03-26T03:33:40;9.80;99.90
15930;DHT22;8064;51.142;4.780;2023-03-26T03:36:09;9.80;99.90
15930;DHT22;8064;51.142;4.780;2023-03-26T03:38:37;9.80;99.90
15930;DHT22;8064;51.142;4.780;2023-03-26T03:41:04;9.80;99.90
15930;DHT22;8064;51.142;4.780;2023-03-26T03:43:30;9.80;99.90
15930;DHT22;8064;51.142;4.780;2023-03-26T03:45:58;9.80;99.90
15930;DHT22;8064;51.142;4.780;2023-03-26T03:48:24;9.80;99.90
15930;DHT22;8064;51.142;4.780;2023-03-26T03:50:50;9.80;99.90
15930;DHT22;8064;51.142;4.780;2023-03-26T03:53:16;9.80;99.90
15930;DHT22;8064;51.142;4.780;2023-03-26T03:55:43;9.80;99.90
15930;DHT22;8064;51.142;4.780;2023-03-26T03:58:19;9.70;99.90
15930;DHT22;8064;51.142;4.780;2023-03-26T04:00:48;9.80;99.90
15930;DHT22;8064;51.142;4.780;2023-03-26T04:03:14;9.80;99.90
15930;DHT22;8064;51.142;4.780;2023-03-26T04:05:40;9.70;99.90
15930;DHT22;8064;51.142;4.780;2023-03-26T04:08:06;9.70;99.90
15930;DHT22;8064;51.142;4.780;2023-03-26T04:10:32;9.70;99.90
15930;DHT22;8064;51.142;4.780;2023-03-26T04:12:57;9.70;99.90
15930;DHT22;8064;51.142;4.780;2023-03-26T04:15:23;9.70;99.90
15930;DHT22;8064;51.142;4.780;2023-03-26T04:17:49;9.60;99.90
15930;DHT22;8064;51.142;4.780;2023-03-26T04:20:16;9.60;99.90
15930;DHT22;8064;51.142;4.780;2023-03-26T04:22:44;9.60;99.90
15930;DHT22;8064;51.142;4.780;2023-03-26T04:25:11;9.60;99.90
15930;DHT22;8064;51.142;4.780;2023-03-26T04:27:39;9.60;99.90
15930;DHT22;8064;51.142;4.780;2023-03-26T04:30:06;9.50;99.90
15930;DHT22;8064;51.142;4.780;2023-03-26T04:32:34;9.50;99.90
15930;DHT22;8064;51.142;4.780;2023-03-26T04:35:03;9.50;99.90
15930;DHT22;8064;51.142;4.780;2023-03-26T04:37:32;9.50;99.90
15930;DHT22;8064;51.142;4.780;2023-03-26T04:40:05;9.50;99.90
15930;DHT22;8064;51.142;4.780;2023-03-26T04:42:34;9.50;99.90
15930;DHT22;8064;51.142;4.780;2023-03-26T04:45:03;9.50;99.90
15930;DHT22;8064;51.142;4.780;2023-03-26T04:47:29;9.50;99.90
15930;DHT22;8064;51.142;4.780;2023-03-26T04:49:54;9.50;99.90
15930;DHT22;8064;51.142;4.780;2023-03-26T04:52:20;9.50;99.90
15930;DHT22;8064;51.142;4.780;2023-03-26T04:54:46;9.50;99.90
15930;DHT22;8064;51.142;4.780;2023-03-26T04:59:43;9.40;99.90
15930;DHT22;8064;51.142;4.780;2023-03-26T05:02:10;9.40;99.90
15930;DHT22;8064;51.142;4.780;2023-03-26T05:04:37;9.40;99.90
15930;DHT22;8064;51.142;4.780;2023-03-26T05:07:04;9.40;99.90
15930;DHT22;8064;51.142;4.780;2023-03-26T05:09:30;9.40;99.90
15930;DHT22;8064;51.142;4.780;2023-03-26T05:11:56;9.40;99.90
15930;DHT22;8064;51.142;4.780;2023-03-26T05:14:23;9.40;99.90
15930;DHT22;8064;51.142;4.780;2023-03-26T05:16:49;9.40;99.90
15930;DHT22;8064;51.142;4.780;2023-03-26T05:19:17;9.40;99.90
15930;DHT22;8064;51.142;4.780;2023-03-26T05:21:43;9.40;99.90
15930;DHT22;8064;51.142;4.780;2023-03-26T05:24:10;9.40;99.90
15930;DHT22;8064;51.142;4.780;2023-03-26T05:26:36;9.40;99.90
15930;DHT22;8064;51.142;4.780;2023-03-26T05:29:03;9.40;99.90
15930;DHT22;8064;51.142;4.780;2023-03-26T05:31:29;9.40;99.90
15930;DHT22;8064;51.142;4.780;2023-03-26T05:33:56;9.40;99.90
15930;DHT22;8064;51.142;4.780;2023-03-26T05:36:22;9.40;99.90
15930;DHT22;8064;51.142;4.780;2023-03-26T05:38:49;9.40;99.90
15930;DHT22;8064;51.142;4.780;2023-03-26T05:41:16;9.30;99.90
15930;DHT22;8064;51.142;4.780;2023-03-26T05:43:42;9.40;99.90
15930;DHT22;8064;51.142;4.780;2023-03-26T05:46:10;9.40;99.90
15930;DHT22;8064;51.142;4.780;2023-03-26T05:48:36;9.40;99.90
15930;DHT22;8064;51.142;4.780;2023-03-26T05:51:03;9.40;99.90
15930;DHT22;8064;51.142;4.780;2023-03-26T05:53:29;9.40;99.90
15930;DHT22;8064;51.142;4.780;2023-03-26T05:55:55;9.40;99.90
15930;DHT22;8064;51.142;4.780;2023-03-26T05:58:24;9.40;99.90
15930;DHT22;8064;51.142;4.780;2023-03-26T06:01:10;9.40;99.90
15930;DHT22;8064;51.142;4.780;2023-03-26T06:03:42;9.40;99.90
15930;DHT22;8064;51.142;4.780;2023-03-26T06:06:11;9.30;99.90
15930;DHT22;8064;51.142;4.780;2023-03-26T06:11:22;9.30;99.90
15930;DHT22;8064;51.142;4.780;2023-03-26T06:13:47;9.30;99.90
15930;DHT22;8064;51.142;4.780;2023-03-26T06:16:14;9.30;99.90
15930;DHT22;8064;51.142;4.780;2023-03-26T06:18:41;9.30;99.90
15930;DHT22;8064;51.142;4.780;2023-03-26T06:21:07;9.30;99.90
15930;DHT22;8064;51.142;4.780;2023-03-26T06:23:33;9.30;99.90
15930;DHT22;8064;51.142;4.780;2023-03-26T06:25:59;9.30;99.90
15930;DHT22;8064;51.142;4.780;2023-03-26T06:28:25;9.30;99.90
15930;DHT22;8064;51.142;4.780;2023-03-26T06:30:51;9.40;99.90
15930;DHT22;8064;51.142;4.780;2023-03-26T06:33:17;9.40;99.90
15930;DHT22;8064;51.142;4.780;2023-03-26T06:35:43;9.40;99.90
15930;DHT22;8064;51.142;4.780;2023-03-26T06:38:10;9.40;99.90
15930;DHT22;8064;51.142;4.780;2023-03-26T06:40:36;9.40;99.90
15930;DHT22;8064;51.142;4.780;2023-03-26T06:43:02;9.40;99.90
15930;DHT22;8064;51.142;4.780;2023-03-26T06:45:29;9.40;99.90
15930;DHT22;8064;51.142;4.780;2023-03-26T06:47:55;9.40;99.90
15930;DHT22;8064;51.142;4.780;2023-03-26T06:50:21;9.50;99.90
15930;DHT22;8064;51.142;4.780;2023-03-26T06:52:47;9.50;99.90
15930;DHT22;8064;51.142;4.780;2023-03-26T06:55:15;9.50;99.90
15930;DHT22;8064;51.142;4.780;2023-03-26T06:57:41;9.50;99.90
15930;DHT22;8064;51.142;4.780;2023-03-26T07:00:10;9.50;99.90
15930;DHT22;8064;51.142;4.780;2023-03-26T07:02:36;9.60;99.90
15930;DHT22;8064;51.142;4.780;2023-03-26T07:05:02;9.60;99.90
15930;DHT22;8064;51.142;4.780;2023-03-26T07:07:28;9.60;99.90
15930;DHT22;8064;51.142;4.780;2023-03-26T07:09:53;9.60;99.90
15930;DHT22;8064;51.142;4.780;2023-03-26T07:12:19;9.60;99.90
15930;DHT22;8064;51.142;4.780;2023-03-26T07:14:45;9.60;99.90
15930;DHT22;8064;51.142;4.780;2023-03-26T07:17:10;9.60;99.90
15930;DHT22;8064;51.142;4.780;2023-03-26T07:19:36;9.60;99.90
15930;DHT22;8064;51.142;4.780;2023-03-26T07:22:02;9.60;99.90
15930;DHT22;8064;51.142;4.780;2023-03-26T07:24:28;9.60;99.90
15930;DHT22;8064;51.142;4.780;2023-03-26T07:29:34;9.60;99.90
15930;DHT22;8064;51.142;4.780;2023-03-26T07:37:37;9.60;99.90
15930;DHT22;8064;51.142;4.780;2023-03-26T07:40:40;9.50;99.90
15930;DHT22;8064;51.142;4.780;2023-03-26T07:46:09;9.50;99.90
15930;DHT22;8064;51.142;4.780;2023-03-26T07:48:40;9.50;99.90
15930;DHT22;8064;51.142;4.780;2023-03-26T07:51:07;9.50;99.90
15930;DHT22;8064;51.142;4.780;2023-03-26T07:53:33;9.50;99.90
15930;DHT22;8064;51.142;4.780;2023-03-26T07:56:02;9.50;99.90
15930;DHT22;8064;51.142;4.780;2023-03-26T08:00:58;9.50;99.90
15930;DHT22;8064;51.142;4.780;2023-03-26T08:09:22;9.50;99.90
15930;DHT22;8064;51.142;4.780;2023-03-26T08:12:05;9.50;99.90
15930;DHT22;8064;51.142;4.780;2023-03-26T08:14:56;9.50;99.90
15930;DHT22;8064;51.142;4.780;2023-03-26T08:20:28;9.50;99.90
15930;DHT22;8064;51.142;4.780;2023-03-26T08:23:13;9.50;99.90
15930;DHT22;8064;51.142;4.780;2023-03-26T08:25:45;9.50;99.90
15930;DHT22;8064;51.142;4.780;2023-03-26T08:28:36;9.50;99.90
15930;DHT22;8064;51.142;4.780;2023-03-26T08:31:06;9.50;99.90
15930;DHT22;8064;51.142;4.780;2023-03-26T08:33:33;9.50;99.90
15930;DHT22;8064;51.142;4.780;2023-03-26T08:36:00;9.50;99.90
15930;DHT22;8064;51.142;4.780;2023-03-26T08:38:26;9.50;99.90
15930;DHT22;8064;51.142;4.780;2023-03-26T08:52:36;9.50;99.90
15930;DHT22;8064;51.142;4.780;2023-03-26T08:57:56;9.50;99.90
15930;DHT22;8064;51.142;4.780;2023-03-26T09:00:41;9.60;99.90
15930;DHT22;8064;51.142;4.780;2023-03-26T09:03:34;9.60;99.90
15930;DHT22;8064;51.142;4.780;2023-03-26T09:15:03;9.60;99.90
15930;DHT22;8064;51.142;4.780;2023-03-26T09:23:02;9.70;99.90
15930;DHT22;8064;51.142;4.780;2023-03-26T09:31:24;9.80;99.90
15930;DHT22;8064;51.142;4.780;2023-03-26T09:33:55;9.90;99.90
15930;DHT22;8064;51.142;4.780;2023-03-26T09:59:08;10.40;99.90
15930;DHT22;8064;51.142;4.780;2023-03-26T10:04:55;10.50;99.90
15930;DHT22;8064;51.142;4.780;2023-03-26T10:13:24;10.60;99.90
15930;DHT22;8064;51.142;4.780;2023-03-26T10:25:04;10.80;99.90
15930;DHT22;8064;51.142;4.780;2023-03-26T10:53:08;11.00;99.90
15930;DHT22;8064;51.142;4.780;2023-03-26T10:55:39;11.00;99.90
15930;DHT22;8064;51.142;4.780;2023-03-26T10:58:23;11.10;99.90
15930;DHT22;8064;51.142;4.780;2023-03-26T11:00:56;11.10;99.90
15930;DHT22;8064;51.142;4.780;2023-03-26T11:03:55;11.20;99.90
15930;DHT22;8064;51.142;4.780;2023-03-26T11:06:49;11.20;99.90
15930;DHT22;8064;51.142;4.780;2023-03-26T11:09:23;11.10;99.90
15930;DHT22;8064;51.142;4.780;2023-03-26T11:25:49;11.00;99.90
15930;DHT22;8064;51.142;4.780;2023-03-26T11:28:41;11.00;99.90
15930;DHT22;8064;51.142;4.780;2023-03-26T11:31:13;10.90;99.90
15930;DHT22;8064;51.142;4.780;2023-03-26T11:33:44;10.90;99.90
15930;DHT22;8064;51.142;4.780;2023-03-26T11:36:13;10.90;99.90
15930;DHT22;8064;51.142;4.780;2023-03-26T11:38:46;10.90;99.90
15930;DHT22;8064;51.142;4.780;2023-03-26T11:41:25;10.90;99.90
15930;DHT22;8064;51.142;4.780;2023-03-26T11:44:18;10.90;99.90
15930;DHT22;8064;51.142;4.780;2023-03-26T11:46:48;10.90;99.90
15930;DHT22;8064;51.142;4.780;2023-03-26T11:49:17;10.80;99.90
15930;DHT22;8064;51.142;4.780;2023-03-26T11:51:46;10.80;99.90
15930;DHT22;8064;51.142;4.780;2023-03-26T11:54:12;10.80;99.90
15930;DHT22;8064;51.142;4.780;2023-03-26T11:56:57;10.80;99.90
15930;DHT22;8064;51.142;4.780;2023-03-26T11:59:40;10.90;99.90
15930;DHT22;8064;51.142;4.780;2023-03-26T12:04:49;11.00;99.90
15930;DHT22;8064;51.142;4.780;2023-03-26T12:07:40;11.00;99.90
15930;DHT22;8064;51.142;4.780;2023-03-26T12:12:47;11.10;99.90
15930;DHT22;8064;51.142;4.780;2023-03-26T12:15:15;11.20;99.90
15930;DHT22;8064;51.142;4.780;2023-03-26T12:17:45;11.20;99.90
15930;DHT22;8064;51.142;4.780;2023-03-26T12:22:50;11.30;99.90
15930;DHT22;8064;51.142;4.780;2023-03-26T12:25:36;11.40;99.90
15930;DHT22;8064;51.142;4.780;2023-03-26T12:28:16;11.50;99.90
15930;DHT22;8064;51.142;4.780;2023-03-26T12:31:01;11.50;99.90
15930;DHT22;8064;51.142;4.780;2023-03-26T12:33:29;11.60;99.90
15930;DHT22;8064;51.142;4.780;2023-03-26T12:35:59;11.60;99.90
15930;DHT22;8064;51.142;4.780;2023-03-26T12:38:40;11.60;99.90
15930;DHT22;8064;51.142;4.780;2023-03-26T12:41:09;11.70;99.90
15930;DHT22;8064;51.142;4.780;2023-03-26T12:43:41;11.70;99.90
15930;DHT22;8064;51.142;4.780;2023-03-26T12:46:27;11.70;99.90
15930;DHT22;8064;51.142;4.780;2023-03-26T12:48:58;11.80;99.90
15930;DHT22;8064;51.142;4.780;2023-03-26T13:00:25;12.10;99.90
15930;DHT22;8064;51.142;4.780;2023-03-26T13:03:24;12.30;99.90
15930;DHT22;8064;51.142;4.780;2023-03-26T13:09:03;12.40;99.90
15930;DHT22;8064;51.142;4.780;2023-03-26T13:11:36;12.50;99.90
15930;DHT22;8064;51.142;4.780;2023-03-26T13:16:53;12.40;99.90
15930;DHT22;8064;51.142;4.780;2023-03-26T13:27:38;12.30;99.90
15930;DHT22;8064;51.142;4.780;2023-03-26T13:38:30;12.10;99.90
15930;DHT22;8064;51.142;4.780;2023-03-26T13:46:46;12.00;99.90
15930;DHT22;8064;51.142;4.780;2023-03-26T13:49:15;12.00;99.90
15930;DHT22;8064;51.142;4.780;2023-03-26T13:51:59;12.00;99.90
15930;DHT22;8064;51.142;4.780;2023-03-26T13:54:32;11.90;99.90
15930;DHT22;8064;51.142;4.780;2023-03-26T13:57:01;11.80;99.90
15930;DHT22;8064;51.142;4.780;2023-03-26T14:02:06;11.70;99.90
15930;DHT22;8064;51.142;4.780;2023-03-26T14:04:38;11.70;99.90
15930;DHT22;8064;51.142;4.780;2023-03-26T14:07:23;11.70;99.90
15930;DHT22;8064;51.142;4.780;2023-03-26T14:12:56;11.70;99.90
15930;DHT22;8064;51.142;4.780;2023-03-26T14:15:29;11.80;99.90
15930;DHT22;8064;51.142;4.780;2023-03-26T14:23:35;11.80;99.90
15930;DHT22;8064;51.142;4.780;2023-03-26T14:43:36;11.50;99.90
15930;DHT22;8064;51.142;4.780;2023-03-26T14:52:12;11.50;99.90
15930;DHT22;8064;51.142;4.780;2023-03-26T14:54:43;11.40;99.90
15930;DHT22;8064;51.142;4.780;2023-03-26T15:05:57;11.40;99.90
15930;DHT22;8064;51.142;4.780;2023-03-26T15:17:37;11.30;99.90
15930;DHT22;8064;51.142;4.780;2023-03-26T15:43:15;10.90;99.90
15930;DHT22;8064;51.142;4.780;2023-03-26T15:45:50;10.90;99.90
15930;DHT22;8064;51.142;4.780;2023-03-26T15:48:21;10.90;99.90
15930;DHT22;8064;51.142;4.780;2023-03-26T15:51:18;10.80;99.90
15930;DHT22;8064;51.142;4.780;2023-03-26T15:54:15;10.80;99.90
15930;DHT22;8064;51.142;4.780;2023-03-26T15:57:13;10.70;99.90
15930;DHT22;8064;51.142;4.780;2023-03-26T16:00:02;10.60;99.90
15930;DHT22;8064;51.142;4.780;2023-03-26T16:17:02;10.30;99.90
15930;DHT22;8064;51.142;4.780;2023-03-26T16:19:45;10.30;99.90
15930;DHT22;8064;51.142;4.780;2023-03-26T16:22:38;10.30;99.90
15930;DHT22;8064;51.142;4.780;2023-03-26T16:25:27;10.30;99.90
15930;DHT22;8064;51.142;4.780;2023-03-26T16:28:16;10.40;99.90
15930;DHT22;8064;51.142;4.780;2023-03-26T16:30:44;10.40;99.90
15930;DHT22;8064;51.142;4.780;2023-03-26T16:33:37;10.40;99.90
15930;DHT22;8064;51.142;4.780;2023-03-26T16:36:28;10.40;99.90
15930;DHT22;8064;51.142;4.780;2023-03-26T16:41:27;10.40;99.90
15930;DHT22;8064;51.142;4.780;2023-03-26T16:52:48;10.40;99.90
15930;DHT22;8064;51.142;4.780;2023-03-26T17:01:07;10.50;99.90
15930;DHT22;8064;51.142;4.780;2023-03-26T17:09:31;10.50;99.90
15930;DHT22;8064;51.142;4.780;2023-03-26T17:14:33;10.50;99.90
15930;DHT22;8064;51.142;4.780;2023-03-26T17:17:08;10.40;99.90
15930;DHT22;8064;51.142;4.780;2023-03-26T17:19:50;10.40;99.90
15930;DHT22;8064;51.142;4.780;2023-03-26T17:22:33;10.40;99.90
15930;DHT22;8064;51.142;4.780;2023-03-26T17:25:17;10.30;99.90
15930;DHT22;8064;51.142;4.780;2023-03-26T17:28:04;10.30;99.90
15930;DHT22;8064;51.142;4.780;2023-03-26T17:30:51;10.20;99.90
15930;DHT22;8064;51.142;4.780;2023-03-26T17:39:46;10.10;99.90
15930;DHT22;8064;51.142;4.780;2023-03-26T17:42:28;10.00;99.90
15930;DHT22;8064;51.142;4.780;2023-03-26T17:44:58;10.00;99.90
15930;DHT22;8064;51.142;4.780;2023-03-26T17:47:27;9.90;99.90
15930;DHT22;8064;51.142;4.780;2023-03-26T17:49:59;9.90;99.90
15930;DHT22;8064;51.142;4.780;2023-03-26T17:55:21;9.80;99.90
15930;DHT22;8064;51.142;4.780;2023-03-26T17:57:52;9.80;99.90
15930;DHT22;8064;51.142;4.780;2023-03-26T18:00:24;9.80;99.90
15930;DHT22;8064;51.142;4.780;2023-03-26T18:02:56;9.70;99.90
15930;DHT22;8064;51.142;4.780;2023-03-26T18:05:26;9.70;99.90
15930;DHT22;8064;51.142;4.780;2023-03-26T18:10:52;9.70;99.90
15930;DHT22;8064;51.142;4.780;2023-03-26T18:13:42;9.60;99.90
15930;DHT22;8064;51.142;4.780;2023-03-26T18:16:41;9.60;99.90
15930;DHT22;8064;51.142;4.780;2023-03-26T18:19:12;9.50;99.90
15930;DHT22;8064;51.142;4.780;2023-03-26T18:21:46;9.50;99.90
15930;DHT22;8064;51.142;4.780;2023-03-26T18:24:20;9.40;99.90
15930;DHT22;8064;51.142;4.780;2023-03-26T18:26:52;9.40;99.90
15930;DHT22;8064;51.142;4.780;2023-03-26T18:29:36;9.40;99.90
15930;DHT22;8064;51.142;4.780;2023-03-26T18:32:17;9.30;99.90
15930;DHT22;8064;51.142;4.780;2023-03-26T18:34:48;9.20;99.90
15930;DHT22;8064;51.142;4.780;2023-03-26T18:37:19;9.10;99.90
15930;DHT22;8064;51.142;4.780;2023-03-26T18:42:37;9.00;99.90
15930;DHT22;8064;51.142;4.780;2023-03-26T18:45:22;9.00;99.90
15930;DHT22;8064;51.142;4.780;2023-03-26T18:47:52;9.00;99.90
15930;DHT22;8064;51.142;4.780;2023-03-26T18:50:25;8.90;99.90
15930;DHT22;8064;51.142;4.780;2023-03-26T18:52:51;8.90;99.90
15930;DHT22;8064;51.142;4.780;2023-03-26T18:55:17;8.90;99.90
15930;DHT22;8064;51.142;4.780;2023-03-26T18:57:43;8.90;99.90
15930;DHT22;8064;51.142;4.780;2023-03-26T19:00:27;8.90;99.90
15930;DHT22;8064;51.142;4.780;2023-03-26T19:03:03;8.90;99.90
15930;DHT22;8064;51.142;4.780;2023-03-26T19:05:31;8.90;99.90
15930;DHT22;8064;51.142;4.780;2023-03-26T19:08:00;8.80;99.90
15930;DHT22;8064;51.142;4.780;2023-03-26T19:10:28;8.80;99.90
15930;DHT22;8064;51.142;4.780;2023-03-26T19:12:57;8.80;99.90
15930;DHT22;8064;51.142;4.780;2023-03-26T19:15:25;8.80;99.90
15930;DHT22;8064;51.142;4.780;2023-03-26T19:17:56;8.80;99.90
15930;DHT22;8064;51.142;4.780;2023-03-26T19:20:28;8.80;99.90
15930;DHT22;8064;51.142;4.780;2023-03-26T19:22:55;8.80;99.90
15930;DHT22;8064;51.142;4.780;2023-03-26T19:25:26;8.70;99.90
15930;DHT22;8064;51.142;4.780;2023-03-26T19:27:52;8.70;99.90
15930;DHT22;8064;51.142;4.780;2023-03-26T19:32:53;8.70;99.90
15930;DHT22;8064;51.142;4.780;2023-03-26T19:35:21;8.70;99.90
15930;DHT22;8064;51.142;4.780;2023-03-26T19:37:50;8.60;99.90
15930;DHT22;8064;51.142;4.780;2023-03-26T19:40:19;8.60;99.90
15930;DHT22;8064;51.142;4.780;2023-03-26T19:42:45;8.60;99.90
15930;DHT22;8064;51.142;4.780;2023-03-26T19:45:32;8.50;99.90
15930;DHT22;8064;51.142;4.780;2023-03-26T19:47:59;8.50;99.90
15930;DHT22;8064;51.142;4.780;2023-03-26T19:50:28;8.50;99.90
15930;DHT22;8064;51.142;4.780;2023-03-26T19:56:13;8.40;99.90
15930;DHT22;8064;51.142;4.780;2023-03-26T19:58:39;8.40;99.90
15930;DHT22;8064;51.142;4.780;2023-03-26T20:03:55;8.30;99.90
15930;DHT22;8064;51.142;4.780;2023-03-26T20:06:24;8.30;99.90
15930;DHT22;8064;51.142;4.780;2023-03-26T20:08:53;8.20;99.90
15930;DHT22;8064;51.142;4.780;2023-03-26T20:11:30;8.20;99.90
15930;DHT22;8064;51.142;4.780;2023-03-26T20:13:59;8.20;99.90
15930;DHT22;8064;51.142;4.780;2023-03-26T20:18:51;8.10;99.90
15930;DHT22;8064;51.142;4.780;2023-03-26T20:21:18;8.10;99.90
15930;DHT22;8064;51.142;4.780;2023-03-26T20:23:44;8.10;99.90
15930;DHT22;8064;51.142;4.780;2023-03-26T20:26:12;8.10;99.90
15930;DHT22;8064;51.142;4.780;2023-03-26T20:28:39;8.10;99.90
15930;DHT22;8064;51.142;4.780;2023-03-26T20:31:08;8.00;99.90
15930;DHT22;8064;51.142;4.780;2023-03-26T20:33:35;8.00;99.90
15930;DHT22;8064;51.142;4.780;2023-03-26T20:36:01;8.00;99.90
15930;DHT22;8064;51.142;4.780;2023-03-26T20:38:28;8.00;99.90
15930;DHT22;8064;51.142;4.780;2023-03-26T20:40:54;8.00;99.90
15930;DHT22;8064;51.142;4.780;2023-03-26T20:43:20;8.00;99.90
15930;DHT22;8064;51.142;4.780;2023-03-26T20:45:49;8.00;99.90
15930;DHT22;8064;51.142;4.780;2023-03-26T20:48:16;8.00;99.90
15930;DHT22;8064;51.142;4.780;2023-03-26T20:50:42;8.00;99.90
15930;DHT22;8064;51.142;4.780;2023-03-26T20:53:12;8.00;99.90
15930;DHT22;8064;51.142;4.780;2023-03-26T20:55:39;8.00;99.90
15930;DHT22;8064;51.142;4.780;2023-03-26T20:58:12;8.00;99.90
15930;DHT22;8064;51.142;4.780;2023-03-26T21:00:38;8.00;99.90
15930;DHT22;8064;51.142;4.780;2023-03-26T21:03:03;8.00;99.90
15930;DHT22;8064;51.142;4.780;2023-03-26T21:05:29;8.00;99.90
15930;DHT22;8064;51.142;4.780;2023-03-26T21:07:57;8.10;99.90
15930;DHT22;8064;51.142;4.780;2023-03-26T21:10:25;8.10;99.90
15930;DHT22;8064;51.142;4.780;2023-03-26T21:12:58;8.10;99.90
15930;DHT22;8064;51.142;4.780;2023-03-26T21:15:27;8.10;99.90
15930;DHT22;8064;51.142;4.780;2023-03-26T21:17:54;8.10;99.90
15930;DHT22;8064;51.142;4.780;2023-03-26T21:20:22;8.10;99.90
15930;DHT22;8064;51.142;4.780;2023-03-26T21:23:06;8.10;99.90
15930;DHT22;8064;51.142;4.780;2023-03-26T21:28:37;8.10;99.90
15930;DHT22;8064;51.142;4.780;2023-03-26T21:31:04;8.10;99.90
15930;DHT22;8064;51.142;4.780;2023-03-26T21:33:30;8.10;99.90
15930;DHT22;8064;51.142;4.780;2023-03-26T21:35:58;8.10;99.90
15930;DHT22;8064;51.142;4.780;2023-03-26T21:38:24;8.00;99.90
15930;DHT22;8064;51.142;4.780;2023-03-26T21:40:52;8.00;99.90
15930;DHT22;8064;51.142;4.780;2023-03-26T21:43:20;8.00;99.90
15930;DHT22;8064;51.142;4.780;2023-03-26T21:45:47;8.00;99.90
15930;DHT22;8064;51.142;4.780;2023-03-26T21:48:14;8.00;99.90
15930;DHT22;8064;51.142;4.780;2023-03-26T21:50:41;8.00;99.90
15930;DHT22;8064;51.142;4.780;2023-03-26T21:53:10;7.90;99.90
15930;DHT22;8064;51.142;4.780;2023-03-26T21:58:53;7.90;99.90
15930;DHT22;8064;51.142;4.780;2023-03-26T22:06:20;7.90;99.90
15930;DHT22;8064;51.142;4.780;2023-03-26T22:08:47;7.90;99.90
15930;DHT22;8064;51.142;4.780;2023-03-26T22:11:13;7.90;99.90
15930;DHT22;8064;51.142;4.780;2023-03-26T22:13:39;7.80;99.90
15930;DHT22;8064;51.142;4.780;2023-03-26T22:16:06;7.80;99.90
15930;DHT22;8064;51.142;4.780;2023-03-26T22:18:32;7.70;99.90